createdAt,value
2019-01-09T00:00:50.299Z,261.48
2019-01-09T00:03:20.039Z,261.35
2019-01-09T00:05:49.890Z,262.85
2019-01-09T00:08:20.560Z,258.45
2019-01-09T00:10:50.303Z,256.25
2019-01-09T00:13:20.022Z,262.23
2019-01-09T00:15:49.956Z,259.50
2019-01-09T00:18:19.788Z,265.87
2019-01-09T00:20:50.969Z,258.38
2019-01-09T00:23:20.704Z,253.92
2019-01-09T00:25:50.385Z,262.85
2019-01-09T00:28:20.130Z,257.37
2019-01-09T00:30:49.870Z,259.45
2019-01-09T00:33:19.609Z,263.05
2019-01-09T00:35:49.292Z,255.00
2019-01-09T00:38:19.006Z,249.95
2019-01-09T00:40:49.763Z,258.25
2019-01-09T00:43:19.570Z,254.18
2019-01-09T00:45:49.433Z,251.05
2019-01-09T00:48:19.231Z,253.25
2019-01-09T00:50:49.821Z,254.72
2019-01-09T00:53:20.598Z,249.75
2019-01-09T00:55:50.322Z,251.30
2019-01-09T00:58:20.174Z,253.12
2019-01-09T01:00:49.933Z,249.92
2019-01-09T01:03:40.528Z,243.22
2019-01-09T01:06:31.074Z,250.85
2019-01-09T01:09:18.778Z,247.52
2019-01-09T01:12:08.812Z,240.62
2019-01-09T01:14:41.550Z,238.97
2019-01-09T01:17:17.518Z,238.10
2019-01-09T01:20:12.325Z,235.65
2019-01-09T01:23:19.696Z,238.25
2019-01-09T01:25:57.943Z,232.12
2019-01-09T01:28:51.461Z,231.25
2019-01-09T01:31:29.769Z,223.38
2019-01-09T01:34:20.352Z,225.87
2019-01-09T01:36:55.842Z,232.12
2019-01-09T01:39:34.515Z,223.10
2019-01-09T01:42:13.033Z,223.15
2019-01-09T01:44:45.881Z,222.48
2019-01-09T01:47:41.097Z,225.65
2019-01-09T01:50:22.579Z,228.27
2019-01-09T01:53:29.663Z,232.95
2019-01-09T01:56:23.212Z,222.52
2019-01-09T01:59:04.536Z,228.60
2019-01-09T02:01:43.192Z,226.88
2019-01-09T02:04:34.791Z,231.97
2019-01-09T02:07:24.143Z,233.10
2019-01-09T02:10:05.801Z,226.47
2019-01-09T02:12:44.226Z,229.47
2019-01-09T02:15:28.588Z,221.93
2019-01-09T02:18:01.274Z,240.47
2019-01-09T02:20:54.773Z,231.57
2019-01-09T02:23:36.591Z,223.78
2019-01-09T02:26:12.143Z,225.72
2019-01-09T02:29:02.700Z,224.80
2019-01-09T02:31:35.407Z,223.68
2019-01-09T02:34:05.185Z,226.73
2019-01-09T02:36:34.839Z,219.53
2019-01-09T02:39:05.195Z,217.30
2019-01-09T02:41:34.849Z,214.97
2019-01-09T02:44:04.597Z,218.52
2019-01-09T02:46:34.272Z,216.73
2019-01-09T02:49:04.083Z,217.55
2019-01-09T02:51:34.720Z,217.87
2019-01-09T02:54:04.482Z,215.80
2019-01-09T02:56:34.222Z,220.20
2019-01-09T02:59:04.027Z,218.87
2019-01-09T03:01:33.641Z,219.00
2019-01-09T03:04:03.341Z,216.97
2019-01-09T03:06:33.141Z,218.97
2019-01-09T03:09:02.798Z,217.93
2019-01-09T03:11:33.478Z,220.15
2019-01-09T03:14:04.264Z,228.02
2019-01-09T03:16:34.089Z,225.40
2019-01-09T03:19:03.872Z,222.83
2019-01-09T03:21:33.707Z,223.45
2019-01-09T03:24:03.447Z,219.47
2019-01-09T03:26:33.070Z,228.80
2019-01-09T03:29:02.844Z,223.43
2019-01-09T03:31:32.603Z,221.90
2019-01-09T03:34:02.352Z,229.23
2019-01-09T03:36:32.984Z,232.60
2019-01-09T03:39:03.596Z,232.47
2019-01-09T03:41:33.336Z,233.55
2019-01-09T03:44:03.142Z,230.77
2019-01-09T03:46:33.034Z,239.20
2019-01-09T03:49:03.735Z,236.07
2019-01-09T03:51:34.403Z,232.85
2019-01-09T03:54:04.189Z,238.72
2019-01-09T03:56:33.821Z,236.97
2019-01-09T03:59:03.557Z,242.80
2019-01-09T04:01:33.357Z,236.65
2019-01-09T04:04:03.030Z,231.60
2019-01-09T04:06:41.653Z,237.53
2019-01-09T04:09:04.631Z,229.00
2019-01-09T04:11:34.271Z,231.07
2019-01-09T04:14:04.023Z,225.78
2019-01-09T04:16:34.096Z,234.85
2019-01-09T04:19:03.807Z,232.70
2019-01-09T04:21:33.549Z,230.17
2019-01-09T04:24:03.165Z,226.25
2019-01-09T04:26:33.927Z,235.35
2019-01-09T04:29:03.523Z,233.40
2019-01-09T04:31:34.314Z,236.22
2019-01-09T04:34:04.121Z,229.65
2019-01-09T04:36:33.739Z,233.97
2019-01-09T04:39:04.866Z,224.73
2019-01-09T04:41:34.628Z,232.72
2019-01-09T04:44:05.291Z,231.13
2019-01-09T04:46:35.880Z,229.32
2019-01-09T04:49:05.598Z,233.47
2019-01-09T04:51:35.295Z,225.15
2019-01-09T04:54:04.954Z,227.38
2019-01-09T04:56:34.644Z,224.70
2019-01-09T04:59:05.214Z,224.58
2019-01-09T05:01:34.999Z,229.82
2019-01-09T05:04:04.682Z,222.27
2019-01-09T05:06:34.509Z,224.82
2019-01-09T05:09:05.735Z,224.27
2019-01-09T05:11:35.409Z,225.53
2019-01-09T05:14:05.179Z,228.30
2019-01-09T05:16:34.951Z,224.15
2019-01-09T05:19:04.837Z,224.80
2019-01-09T05:21:34.658Z,220.88
2019-01-09T05:24:04.465Z,219.57
2019-01-09T05:26:34.199Z,218.20
2019-01-09T05:29:04.005Z,229.32
2019-01-09T05:31:33.744Z,223.03
2019-01-09T05:34:04.303Z,213.55
2019-01-09T05:36:33.977Z,217.72
2019-01-09T05:39:05.446Z,219.72
2019-01-09T05:41:35.298Z,221.82
2019-01-09T05:44:05.111Z,219.40
2019-01-09T05:46:34.863Z,222.25
2019-01-09T05:49:04.551Z,227.28
2019-01-09T05:51:34.248Z,220.00
2019-01-09T05:54:03.983Z,224.00
2019-01-09T05:56:33.674Z,226.67
2019-01-09T05:59:03.358Z,222.42
2019-01-09T06:01:33.024Z,219.17
2019-01-09T06:04:02.919Z,220.82
2019-01-09T06:06:32.576Z,213.10
2019-01-09T06:09:02.333Z,221.47
2019-01-09T06:11:33.290Z,214.10
2019-01-09T06:14:03.057Z,212.12
2019-01-09T06:16:32.799Z,218.73
2019-01-09T06:19:02.479Z,219.95
2019-01-09T06:21:33.852Z,215.32
2019-01-09T06:24:03.545Z,215.45
2019-01-09T06:26:33.213Z,217.65
2019-01-09T06:29:02.999Z,215.03
2019-01-09T06:31:32.670Z,219.53
2019-01-09T06:34:02.390Z,217.03
2019-01-09T06:36:32.052Z,216.70
2019-01-09T06:39:01.786Z,215.70
2019-01-09T06:41:31.476Z,215.25
2019-01-09T06:44:01.219Z,216.20
2019-01-09T06:46:30.818Z,223.10
2019-01-09T06:49:01.511Z,212.88
2019-01-09T06:51:31.138Z,213.32
2019-01-09T06:54:00.960Z,220.07
2019-01-09T06:56:32.522Z,217.65
2019-01-09T06:59:02.275Z,223.80
2019-01-09T07:01:33.873Z,219.43
2019-01-09T07:04:03.642Z,214.42
2019-01-09T07:06:33.343Z,225.70
2019-01-09T07:09:04.607Z,228.25
2019-01-09T07:11:34.310Z,229.47
2019-01-09T07:14:04.105Z,230.17
2019-01-09T07:16:34.710Z,214.07
2019-01-09T07:19:04.450Z,217.53
2019-01-09T07:21:34.142Z,223.28
2019-01-09T07:24:03.893Z,219.25
2019-01-09T07:26:33.631Z,218.15
2019-01-09T07:29:03.305Z,219.90
2019-01-09T07:31:33.077Z,220.07
2019-01-09T07:34:02.939Z,232.90
2019-01-09T07:36:32.808Z,232.83
2019-01-09T07:39:02.544Z,222.90
2019-01-09T07:41:33.211Z,243.45
2019-01-09T07:44:03.445Z,227.43
2019-01-09T07:46:33.198Z,223.93
2019-01-09T07:49:02.914Z,229.05
2019-01-09T07:51:32.653Z,237.25
2019-01-09T07:54:02.270Z,233.13
2019-01-09T07:56:32.070Z,236.57
2019-01-09T07:59:01.742Z,232.32
2019-01-09T08:01:31.434Z,228.27
2019-01-09T08:04:02.111Z,239.38
2019-01-09T08:06:31.877Z,229.38
2019-01-09T08:09:01.674Z,256.87
2019-01-09T08:11:31.565Z,264.20
2019-01-09T08:14:01.472Z,263.15
2019-01-09T08:16:31.162Z,250.25
2019-01-09T08:19:00.905Z,245.07
2019-01-09T08:21:30.508Z,244.35
2019-01-09T08:24:00.241Z,245.15
2019-01-09T08:26:30.511Z,236.72
2019-01-09T08:29:00.338Z,236.22
2019-01-09T08:31:33.604Z,243.52
2019-01-09T08:34:03.467Z,251.05
2019-01-09T08:36:33.254Z,238.25
2019-01-09T08:39:04.655Z,250.38
2019-01-09T08:41:34.550Z,256.63
2019-01-09T08:44:04.219Z,250.20
2019-01-09T08:46:33.983Z,245.05
2019-01-09T08:49:03.899Z,265.75
2019-01-09T08:51:33.855Z,265.40
2019-01-09T08:54:03.679Z,266.05
2019-01-09T08:56:33.382Z,259.02
2019-01-09T08:59:03.084Z,267.15
2019-01-09T09:01:32.734Z,254.50
2019-01-09T09:04:02.552Z,265.00
2019-01-09T09:06:32.275Z,264.68
2019-01-09T09:09:02.402Z,277.98
2019-01-09T09:11:32.171Z,265.90
2019-01-09T09:14:01.880Z,271.95
2019-01-09T09:16:36.836Z,251.58
2019-01-09T09:19:04.388Z,267.65
2019-01-09T09:21:33.998Z,278.15
2019-01-09T09:24:04.657Z,271.27
2019-01-09T09:26:34.323Z,269.52
2019-01-09T09:29:04.219Z,264.72
2019-01-09T09:31:33.850Z,273.60
2019-01-09T09:34:03.553Z,276.55
2019-01-09T09:36:33.298Z,273.02
2019-01-09T09:39:03.076Z,276.20
2019-01-09T09:41:32.937Z,279.27
2019-01-09T09:44:02.714Z,275.57
2019-01-09T09:46:32.397Z,285.88
2019-01-09T09:49:02.178Z,282.27
2019-01-09T09:51:31.969Z,293.12
2019-01-09T09:54:02.779Z,281.40
2019-01-09T09:56:32.446Z,281.35
2019-01-09T09:59:02.132Z,282.23
2019-01-09T10:01:31.826Z,278.30
2019-01-09T10:04:01.570Z,275.22
2019-01-09T10:06:31.220Z,268.55
2019-01-09T10:09:00.976Z,288.93
2019-01-09T10:11:30.579Z,280.23
2019-01-09T10:14:01.342Z,286.18
2019-01-09T10:16:31.010Z,280.83
2019-01-09T10:19:00.712Z,276.20
2019-01-09T10:21:31.313Z,284.15
2019-01-09T10:24:01.131Z,285.05
2019-01-09T10:26:30.821Z,274.42
2019-01-09T10:29:00.567Z,286.95
2019-01-09T10:31:30.253Z,276.27
2019-01-09T10:33:59.933Z,295.93
2019-01-09T10:36:29.703Z,290.10
2019-01-09T10:38:59.446Z,287.72
2019-01-09T10:41:30.133Z,286.77
2019-01-09T10:43:59.867Z,293.25
2019-01-09T10:46:30.706Z,271.68
2019-01-09T10:49:00.447Z,278.83
2019-01-09T10:51:30.261Z,277.80
2019-01-09T10:54:00.760Z,282.02
2019-01-09T10:56:30.764Z,285.05
2019-01-09T10:59:00.452Z,280.30
2019-01-09T11:01:30.278Z,285.98
2019-01-09T11:03:59.937Z,273.50
2019-01-09T11:06:29.702Z,291.57
2019-01-09T11:08:59.293Z,290.23
2019-01-09T11:11:29.059Z,280.07
2019-01-09T11:13:58.651Z,288.30
2019-01-09T11:16:28.423Z,283.75
2019-01-09T11:18:58.272Z,288.45
2019-01-09T11:21:27.958Z,289.23
2019-01-09T11:23:58.556Z,291.12
2019-01-09T11:26:28.426Z,291.42
2019-01-09T11:28:58.008Z,291.82
2019-01-09T11:31:27.762Z,280.83
2019-01-09T11:33:58.330Z,272.90
2019-01-09T11:36:28.090Z,291.40
2019-01-09T11:38:57.863Z,286.65
2019-01-09T11:41:27.616Z,295.67
2019-01-09T11:43:57.291Z,293.60
2019-01-09T11:46:27.145Z,283.23
2019-01-09T11:48:56.835Z,289.35
2019-01-09T11:51:26.599Z,289.50
2019-01-09T11:53:58.169Z,287.98
2019-01-09T11:56:28.794Z,285.05
2019-01-09T11:58:58.538Z,291.50
2019-01-09T12:01:29.190Z,294.27
2019-01-09T12:03:58.932Z,293.12
2019-01-09T12:06:28.627Z,292.02
2019-01-09T12:09:04.460Z,287.35
2019-01-09T12:11:29.993Z,292.95
2019-01-09T12:13:59.660Z,292.75
2019-01-09T12:16:29.335Z,295.50
2019-01-09T12:18:59.020Z,300.70
2019-01-09T12:21:28.835Z,291.02
2019-01-09T12:23:58.548Z,294.90
2019-01-09T12:26:28.249Z,296.65
2019-01-09T12:28:57.921Z,241.82
2019-01-09T12:31:27.673Z,227.10
2019-01-09T12:33:59.242Z,222.78
2019-01-09T12:36:29.050Z,232.30
2019-01-09T12:38:59.584Z,230.75
2019-01-09T12:41:29.418Z,234.62
2019-01-09T12:44:00.005Z,260.30
2019-01-09T12:46:29.759Z,250.18
2019-01-09T12:49:00.345Z,255.63
2019-01-09T12:51:30.160Z,260.77
2019-01-09T12:53:59.839Z,257.07
2019-01-09T12:56:31.982Z,253.47
2019-01-09T12:59:02.641Z,258.63
2019-01-09T13:01:34.349Z,251.45
2019-01-09T13:04:04.423Z,253.27
2019-01-09T13:06:34.245Z,266.50
2019-01-09T13:09:07.465Z,262.65
2019-01-09T13:11:37.172Z,264.48
2019-01-09T13:14:06.904Z,267.27
2019-01-09T13:16:36.598Z,265.48
2019-01-09T13:19:06.336Z,262.45
2019-01-09T13:21:36.070Z,256.67
2019-01-09T13:24:05.795Z,256.47
2019-01-09T13:26:35.584Z,259.73
2019-01-09T13:29:05.629Z,263.30
2019-01-09T13:31:35.399Z,266.33
2019-01-09T13:34:06.971Z,266.90
2019-01-09T13:36:36.720Z,259.95
2019-01-09T13:39:07.889Z,257.57
2019-01-09T13:41:37.740Z,251.45
2019-01-09T13:44:09.527Z,248.90
2019-01-09T13:46:39.365Z,248.72
2019-01-09T13:49:09.025Z,244.62
2019-01-09T13:51:39.833Z,244.90
2019-01-09T13:54:09.564Z,241.85
2019-01-09T13:56:39.286Z,234.92
2019-01-09T13:59:08.898Z,228.10
2019-01-09T14:01:39.718Z,234.03
2019-01-09T14:04:09.323Z,230.43
2019-01-09T14:06:39.099Z,230.85
2019-01-09T14:09:08.839Z,224.77
2019-01-09T14:11:38.553Z,225.30
2019-01-09T14:14:08.289Z,222.37
2019-01-09T14:16:37.993Z,225.75
2019-01-09T14:19:08.111Z,219.75
2019-01-09T14:21:37.868Z,223.87
2019-01-09T14:24:09.497Z,227.60
2019-01-09T14:26:39.196Z,229.63
2019-01-09T14:29:08.967Z,223.57
2019-01-09T14:31:38.647Z,225.57
2019-01-09T14:34:09.339Z,228.60
2019-01-09T14:36:39.042Z,225.85
2019-01-09T14:39:08.782Z,225.82
2019-01-09T14:41:38.534Z,225.67
2019-01-09T14:44:08.122Z,217.50
2019-01-09T14:46:38.701Z,221.90
2019-01-09T14:49:08.489Z,218.63
2019-01-09T14:51:43.034Z,222.30
2019-01-09T14:54:10.464Z,217.28
2019-01-09T14:56:40.154Z,226.42
2019-01-09T14:59:09.831Z,221.85
2019-01-09T15:01:39.591Z,222.63
2019-01-09T15:04:09.377Z,225.18
2019-01-09T15:06:39.281Z,228.22
2019-01-09T15:11:56.579Z,233.20
2019-01-09T15:14:26.197Z,232.75
2019-01-09T15:16:55.980Z,234.57
2019-01-09T15:19:25.616Z,233.13
2019-01-09T15:21:55.345Z,226.73
2019-01-09T15:24:25.023Z,226.00
2019-01-09T15:26:54.833Z,228.92
2019-01-09T15:29:24.435Z,227.32
2019-01-09T15:31:54.203Z,227.47
2019-01-09T15:34:23.878Z,225.20
2019-01-09T15:36:53.566Z,224.73
2019-01-09T15:39:25.834Z,225.10
2019-01-09T15:41:55.540Z,223.55
2019-01-09T15:44:25.279Z,223.77
2019-01-09T15:46:54.981Z,219.77
2019-01-09T15:49:24.733Z,221.87
2019-01-09T15:51:54.551Z,219.55
2019-01-09T15:54:24.163Z,224.75
2019-01-09T15:56:55.702Z,223.50
2019-01-09T15:59:27.493Z,223.05
2019-01-09T16:01:58.298Z,220.40
2019-01-09T16:04:28.076Z,221.30
2019-01-09T16:06:57.905Z,219.85
2019-01-09T16:09:27.647Z,218.22
2019-01-09T16:11:58.571Z,219.53
2019-01-09T16:14:28.310Z,220.07
2019-01-09T16:16:58.022Z,218.50
2019-01-09T16:19:27.705Z,216.42
2019-01-09T16:21:58.470Z,217.85
2019-01-09T16:24:28.149Z,217.28
2019-01-09T16:26:58.907Z,227.00
2019-01-09T16:29:28.691Z,228.10
2019-01-09T16:31:58.452Z,218.37
2019-01-09T16:34:28.123Z,221.77
2019-01-09T16:36:58.792Z,207.72
2019-01-09T16:39:30.992Z,203.77
2019-01-09T16:42:03.126Z,202.62
2019-01-09T16:44:33.648Z,199.97
2019-01-09T16:47:03.453Z,198.17
2019-01-09T16:49:34.151Z,210.43
2019-01-09T16:52:03.965Z,201.25
2019-01-09T16:54:34.754Z,202.50
2019-01-09T16:57:04.789Z,199.50
2019-01-09T16:59:35.180Z,199.12
2019-01-09T17:02:05.029Z,201.90
2019-01-09T17:04:34.923Z,198.93
2019-01-09T17:07:05.057Z,202.15
2019-01-09T17:09:34.766Z,199.12
2019-01-09T17:12:04.636Z,194.80
2019-01-09T17:14:34.348Z,202.13
2019-01-09T17:17:04.774Z,197.45
2019-01-09T17:19:34.493Z,196.32
2019-01-09T17:22:04.304Z,197.50
2019-01-09T17:24:34.119Z,202.70
2019-01-09T17:27:04.223Z,197.15
2019-01-09T17:29:34.001Z,193.68
2019-01-09T17:32:03.855Z,195.75
2019-01-09T17:34:33.681Z,197.47
2019-01-09T17:37:05.459Z,193.57
2019-01-09T17:39:35.240Z,193.35
2019-01-09T17:42:06.667Z,187.25
2019-01-09T17:44:36.497Z,190.97
2019-01-09T17:47:06.250Z,192.80
2019-01-09T17:49:36.452Z,188.10
2019-01-09T17:52:06.205Z,190.35
2019-01-09T17:54:36.895Z,190.43
2019-01-09T17:57:06.624Z,187.70
2019-01-09T17:59:36.420Z,192.25
2019-01-09T18:02:06.146Z,192.70
2019-01-09T18:04:35.787Z,188.37
2019-01-09T18:07:05.657Z,183.75
2019-01-09T18:09:35.480Z,189.80
2019-01-09T18:12:05.513Z,192.13
2019-01-09T18:14:37.431Z,181.93
2019-01-09T18:17:07.271Z,186.85
2019-01-09T18:19:36.950Z,187.73
2019-01-09T18:22:07.098Z,187.00
2019-01-09T18:24:38.704Z,188.40
2019-01-09T18:27:08.471Z,187.30
2019-01-09T18:29:39.047Z,190.47
2019-01-09T18:32:20.609Z,191.53
2019-01-09T18:34:50.719Z,197.53
2019-01-09T18:37:42.833Z,197.47
2019-01-09T18:40:38.333Z,204.50
2019-01-09T18:43:23.209Z,207.70
2019-01-09T18:45:55.947Z,200.85
2019-01-09T18:48:47.962Z,207.85
2019-01-09T18:51:23.607Z,199.53
2019-01-09T18:53:53.298Z,198.30
2019-01-09T18:56:23.006Z,199.60
2019-01-09T18:58:53.754Z,196.45
2019-01-09T19:01:23.575Z,198.00
2019-01-09T19:03:53.309Z,194.55
2019-01-09T19:06:23.227Z,197.57
2019-01-09T19:08:53.009Z,191.57
2019-01-09T19:11:22.727Z,195.47
2019-01-09T19:13:52.824Z,186.62
2019-01-09T19:16:22.730Z,187.37
2019-01-09T19:18:54.227Z,188.97
2019-01-09T19:21:24.060Z,187.53
2019-01-09T19:23:54.312Z,184.27
2019-01-09T19:26:24.501Z,182.82
2019-01-09T19:28:54.279Z,184.28
2019-01-09T19:31:24.139Z,180.57
2019-01-09T19:33:53.884Z,180.97
2019-01-09T19:36:24.046Z,184.87
2019-01-09T19:38:53.896Z,182.67
2019-01-09T19:41:23.746Z,181.67
2019-01-09T19:43:53.447Z,183.07
2019-01-09T19:46:23.250Z,183.77
2019-01-09T19:48:53.013Z,182.62
2019-01-09T19:51:23.034Z,182.70
2019-01-09T19:53:53.035Z,177.07
2019-01-09T19:56:23.708Z,185.52
2019-01-09T19:58:53.746Z,187.05
2019-01-09T20:01:23.488Z,183.57
2019-01-09T20:03:53.465Z,186.57
2019-01-09T20:06:23.429Z,187.05
2019-01-09T20:08:53.364Z,184.72
2019-01-09T20:11:26.641Z,189.65
2019-01-09T20:13:54.715Z,188.75
2019-01-09T20:16:24.896Z,191.70
2019-01-09T20:18:54.931Z,185.85
2019-01-09T20:21:24.925Z,185.20
2019-01-09T20:23:54.792Z,180.80
2019-01-09T20:26:24.377Z,182.65
2019-01-09T20:28:54.034Z,182.10
2019-01-09T20:31:23.860Z,181.47
2019-01-09T20:33:53.613Z,183.60
2019-01-09T20:36:23.599Z,181.37
2019-01-09T20:38:53.470Z,182.13
2019-01-09T20:41:23.225Z,180.57
2019-01-09T20:43:52.971Z,174.80
2019-01-09T20:46:23.013Z,178.50
2019-01-09T20:48:53.235Z,184.67
2019-01-09T20:51:22.931Z,187.30
2019-01-09T20:53:53.652Z,189.03
2019-01-09T20:56:23.424Z,185.85
2019-01-09T20:58:53.207Z,185.35
2019-01-09T21:01:23.035Z,187.20
2019-01-09T21:03:52.895Z,185.30
2019-01-09T21:06:22.778Z,186.00
2019-01-09T21:08:59.444Z,190.50
2019-01-09T21:11:24.023Z,186.70
2019-01-09T21:13:53.788Z,189.57
2019-01-09T21:16:23.566Z,191.50
2019-01-09T21:18:53.340Z,201.35
2019-01-09T21:21:23.029Z,193.52
2019-01-09T21:23:52.809Z,190.80
2019-01-09T21:26:22.649Z,187.77
2019-01-09T21:28:52.617Z,195.28
2019-01-09T21:31:22.355Z,198.25
2019-01-09T21:33:52.137Z,198.87
2019-01-09T21:36:22.075Z,197.30
2019-01-09T21:38:51.846Z,188.90
2019-01-09T21:41:21.571Z,196.83
2019-01-09T21:43:51.313Z,191.20
2019-01-09T21:46:21.081Z,197.45
2019-01-09T21:48:51.541Z,190.57
2019-01-09T21:51:22.119Z,191.25
2019-01-09T21:53:51.966Z,193.22
2019-01-09T21:56:22.127Z,198.70
2019-01-09T21:58:53.006Z,192.98
2019-01-09T22:01:22.668Z,190.57
2019-01-09T22:03:52.360Z,188.05
2019-01-09T22:06:22.166Z,193.30
2019-01-09T22:08:51.886Z,188.37
2019-01-09T22:11:21.670Z,190.38
2019-01-09T22:13:51.606Z,186.47
2019-01-09T22:16:21.344Z,185.15
2019-01-09T22:18:51.939Z,186.20
2019-01-09T22:21:21.756Z,187.95
2019-01-09T22:23:52.465Z,193.25
2019-01-09T22:26:22.181Z,199.07
2019-01-09T22:28:51.919Z,205.25
2019-01-09T22:31:21.733Z,208.23
2019-01-09T22:33:52.186Z,199.80
2019-01-09T22:36:22.040Z,208.53
2019-01-09T22:38:51.770Z,195.72
2019-01-09T22:41:21.532Z,193.07
2019-01-09T22:43:51.366Z,190.40
2019-01-09T22:46:21.217Z,195.92
2019-01-09T22:48:51.069Z,192.40
2019-01-09T22:51:20.679Z,186.88
2019-01-09T22:53:50.364Z,193.35
2019-01-09T22:56:20.124Z,184.97
2019-01-09T22:58:49.790Z,189.57
2019-01-09T23:01:19.546Z,191.00
2019-01-09T23:03:49.352Z,189.23
2019-01-09T23:06:19.109Z,192.57
2019-01-09T23:08:49.119Z,192.23
2019-01-09T23:11:19.913Z,193.55
2019-01-09T23:13:49.662Z,192.75
2019-01-09T23:16:19.677Z,192.37
2019-01-09T23:18:49.596Z,184.87
2019-01-09T23:21:19.264Z,198.65
2019-01-09T23:23:49.921Z,190.88
2019-01-09T23:26:19.681Z,190.18
2019-01-09T23:28:49.417Z,196.45
2019-01-09T23:31:19.231Z,188.07
2019-01-09T23:33:48.989Z,191.03
2019-01-09T23:36:18.926Z,187.27
2019-01-09T23:38:48.624Z,186.50
2019-01-09T23:41:18.464Z,188.68
2019-01-09T23:43:48.212Z,187.55
2019-01-09T23:46:17.935Z,189.15
2019-01-09T23:48:47.566Z,197.87
2019-01-09T23:51:17.363Z,216.70
2019-01-09T23:53:47.057Z,220.22
2019-01-09T23:56:17.698Z,237.27
2019-01-09T23:58:47.315Z,242.90
